createdAt,value
2023-04-03T00:00:39.334Z,15.76
2023-04-03T00:03:18.902Z,15.76
2023-04-03T00:05:47.088Z,15.84
2023-04-03T00:08:15.798Z,15.73
2023-04-03T00:10:43.825Z,15.91
2023-04-03T00:13:11.699Z,15.83
2023-04-03T00:15:39.774Z,15.78
2023-04-03T00:18:08.326Z,15.74
2023-04-03T00:20:36.237Z,15.69
2023-04-03T00:23:04.570Z,15.88
2023-04-03T00:25:32.221Z,15.78
2023-04-03T00:28:00.529Z,15.68
2023-04-03T00:30:28.277Z,15.72
2023-04-03T00:32:56.198Z,15.61
2023-04-03T00:35:24.518Z,15.61
2023-04-03T00:37:54.059Z,15.44
2023-04-03T00:40:23.159Z,15.40
2023-04-03T00:42:53.879Z,15.46
2023-04-03T00:45:27.098Z,15.75
2023-04-03T00:47:55.627Z,15.68
2023-04-03T00:50:23.900Z,15.19
2023-04-03T00:52:52.078Z,15.21
2023-04-03T00:55:20.868Z,15.38
2023-04-03T00:57:49.089Z,15.20
2023-04-03T01:00:19.270Z,15.02
2023-04-03T01:02:47.321Z,15.10
2023-04-03T01:05:17.813Z,15.05
2023-04-03T01:07:46.313Z,15.24
2023-04-03T01:10:15.760Z,14.90
2023-04-03T01:12:46.672Z,14.84
2023-04-03T01:15:20.725Z,14.95
2023-04-03T01:17:50.300Z,15.05
2023-04-03T01:20:20.930Z,14.84
2023-04-03T01:23:07.683Z,15.21
2023-04-03T01:25:37.797Z,15.27
2023-04-03T01:28:06.784Z,15.09
2023-04-03T01:30:38.136Z,14.84
2023-04-03T01:33:06.547Z,14.93
2023-04-03T01:35:34.935Z,14.68
2023-04-03T01:38:02.810Z,14.58
2023-04-03T01:40:30.791Z,14.57
2023-04-03T01:42:59.034Z,14.52
2023-04-03T01:45:26.894Z,14.28
2023-04-03T01:47:55.476Z,14.51
2023-04-03T01:50:25.701Z,14.50
2023-04-03T01:52:54.183Z,14.31
2023-04-03T01:55:21.722Z,14.42
2023-04-03T01:57:49.821Z,14.19
2023-04-03T02:00:17.684Z,14.43
2023-04-03T02:02:46.569Z,14.58
2023-04-03T02:05:15.665Z,14.58
2023-04-03T02:07:43.623Z,14.35
2023-04-03T02:10:11.569Z,14.44
2023-04-03T02:12:39.628Z,14.41
2023-04-03T02:15:07.639Z,14.27
2023-04-03T02:17:36.534Z,14.46
2023-04-03T02:20:05.148Z,14.51
2023-04-03T02:22:35.078Z,14.35
2023-04-03T02:25:02.792Z,14.32
2023-04-03T02:27:31.226Z,14.10
2023-04-03T02:29:58.824Z,14.11
2023-04-03T02:32:26.895Z,14.10
2023-04-03T02:34:54.677Z,13.99
2023-04-03T02:37:22.647Z,14.11
2023-04-03T02:39:52.027Z,14.14
2023-04-03T02:42:20.041Z,14.12
2023-04-03T02:44:47.770Z,14.01
2023-04-03T02:47:15.700Z,13.96
2023-04-03T02:49:46.457Z,13.91
2023-04-03T02:52:15.178Z,14.18
2023-04-03T02:54:42.737Z,14.13
2023-04-03T02:57:12.200Z,14.02
2023-04-03T02:59:42.746Z,14.13
2023-04-03T03:02:12.777Z,14.08
2023-04-03T03:04:40.466Z,14.16
2023-04-03T03:07:08.394Z,14.19
2023-04-03T03:09:35.904Z,14.05
2023-04-03T03:12:03.894Z,13.99
2023-04-03T03:14:31.637Z,13.72
2023-04-03T03:16:59.514Z,13.80
2023-04-03T03:19:27.648Z,13.86
2023-04-03T03:21:55.601Z,13.77
2023-04-03T03:24:23.848Z,13.86
2023-04-03T03:26:51.742Z,13.78
2023-04-03T03:29:19.388Z,13.94
2023-04-03T03:31:47.619Z,13.84
2023-04-03T03:34:15.287Z,13.73
2023-04-03T03:36:43.186Z,13.89
2023-04-03T03:39:11.398Z,13.88
2023-04-03T03:41:39.337Z,14.03
2023-04-03T03:44:07.619Z,14.03
2023-04-03T03:46:35.822Z,14.09
2023-04-03T03:49:03.438Z,13.94
2023-04-03T03:51:31.605Z,13.88
2023-04-03T03:53:59.354Z,13.80
2023-04-03T03:56:28.076Z,13.73
2023-04-03T03:58:57.338Z,14.15
2023-04-03T04:01:25.744Z,14.33
2023-04-03T04:03:55.286Z,14.21
2023-04-03T04:06:27.691Z,14.43
2023-04-03T04:08:59.198Z,14.53
2023-04-03T04:11:28.283Z,14.60
2023-04-03T04:13:56.876Z,14.58
2023-04-03T04:16:28.428Z,14.88
2023-04-03T04:18:58.227Z,15.16
2023-04-03T04:21:27.769Z,15.30
2023-04-03T04:23:55.845Z,15.19
2023-04-03T04:26:25.450Z,15.35
2023-04-03T04:28:53.013Z,15.41
2023-04-03T04:31:21.610Z,15.48
2023-04-03T04:33:50.100Z,15.61
2023-04-03T04:36:18.071Z,15.53
2023-04-03T04:38:47.782Z,15.55
2023-04-03T04:41:17.300Z,15.51
2023-04-03T04:43:46.048Z,15.52
2023-04-03T04:46:14.066Z,15.64
2023-04-03T04:48:46.912Z,15.74
2023-04-03T04:51:16.228Z,15.74
2023-04-03T04:53:44.077Z,15.77
2023-04-03T04:56:14.830Z,15.77
2023-04-03T04:58:43.544Z,15.80
2023-04-03T05:01:12.037Z,15.57
2023-04-03T05:03:49.138Z,15.84
2023-04-03T05:06:18.280Z,15.75
2023-04-03T05:08:46.722Z,15.84
2023-04-03T05:11:14.846Z,15.87
2023-04-03T05:13:44.272Z,15.77
2023-04-03T05:16:12.557Z,15.84
2023-04-03T05:18:40.075Z,15.97
2023-04-03T05:21:11.406Z,16.00
2023-04-03T05:23:38.980Z,16.01
2023-04-03T05:26:07.680Z,15.91
2023-04-03T05:28:36.636Z,16.08
2023-04-03T05:31:04.690Z,16.02
2023-04-03T05:33:36.241Z,16.16
2023-04-03T05:36:06.946Z,16.28
2023-04-03T05:38:41.017Z,16.15
2023-04-03T05:41:09.142Z,16.30
2023-04-03T05:43:39.091Z,16.47
2023-04-03T05:46:13.088Z,16.34
2023-04-03T05:48:42.439Z,16.21
2023-04-03T05:51:20.667Z,16.12
2023-04-03T05:53:53.910Z,16.41
2023-04-03T05:56:21.791Z,16.60
2023-04-03T05:58:49.457Z,16.53
2023-04-03T06:01:17.392Z,16.71
2023-04-03T06:03:46.219Z,16.49
2023-04-03T06:06:16.583Z,16.53
2023-04-03T06:08:44.868Z,16.50
2023-04-03T06:11:13.718Z,16.65
2023-04-03T06:13:41.352Z,16.39
2023-04-03T06:16:11.407Z,16.56
2023-04-03T06:18:40.572Z,16.71
2023-04-03T06:21:09.061Z,16.76
2023-04-03T06:23:36.842Z,17.09
2023-04-03T06:26:04.701Z,17.00
2023-04-03T06:28:32.231Z,16.84
2023-04-03T06:31:00.210Z,16.95
2023-04-03T06:33:27.741Z,16.55
2023-04-03T06:35:59.580Z,16.71
2023-04-03T06:38:27.255Z,16.71
2023-04-03T06:40:55.107Z,16.61
2023-04-03T06:43:24.317Z,16.83
2023-04-03T06:45:52.847Z,16.79
2023-04-03T06:48:20.393Z,16.94
2023-04-03T06:50:48.554Z,16.93
2023-04-03T06:53:16.454Z,16.98
2023-04-03T06:55:44.220Z,17.11
2023-04-03T06:58:11.758Z,16.73
2023-04-03T07:00:39.866Z,17.19
2023-04-03T07:03:07.814Z,16.87
2023-04-03T07:05:36.082Z,16.99
2023-04-03T07:08:04.261Z,17.34
2023-04-03T07:10:32.809Z,17.58
2023-04-03T07:13:00.284Z,17.53
2023-04-03T07:15:28.111Z,17.45
2023-04-03T07:17:55.675Z,17.22
2023-04-03T07:20:23.502Z,17.44
2023-04-03T07:22:51.754Z,17.44
2023-04-03T07:25:19.536Z,17.29
2023-04-03T07:27:47.062Z,17.22
2023-04-03T07:30:15.293Z,17.55
2023-04-03T07:32:42.782Z,17.42
2023-04-03T07:35:10.758Z,16.81
2023-04-03T07:37:38.442Z,17.69
2023-04-03T07:40:07.845Z,17.28
2023-04-03T07:42:36.215Z,17.08
2023-04-03T07:45:04.682Z,16.95
2023-04-03T07:47:32.543Z,17.79
2023-04-03T07:50:00.395Z,17.76
2023-04-03T07:52:27.932Z,17.91
2023-04-03T07:54:55.828Z,17.54
2023-04-03T07:57:23.478Z,17.96
2023-04-03T07:59:51.451Z,17.74
2023-04-03T08:02:18.922Z,17.98
2023-04-03T08:04:46.930Z,17.77
2023-04-03T08:07:14.670Z,17.80
2023-04-03T08:09:43.162Z,18.45
2023-04-03T08:12:12.573Z,17.97
2023-04-03T08:14:40.441Z,17.79
2023-04-03T08:17:10.560Z,17.76
2023-04-03T08:19:41.581Z,17.95
2023-04-03T08:22:09.110Z,18.04
2023-04-03T08:24:37.752Z,18.26
2023-04-03T08:27:06.861Z,18.28
2023-04-03T08:29:34.854Z,18.50
2023-04-03T08:32:02.372Z,17.97
2023-04-03T08:34:30.251Z,17.94
2023-04-03T08:36:57.761Z,17.97
2023-04-03T08:39:26.026Z,18.00
2023-04-03T08:41:56.502Z,19.17
2023-04-03T08:44:33.366Z,18.86
2023-04-03T08:47:03.667Z,18.82
2023-04-03T08:49:37.517Z,18.90
2023-04-03T08:52:12.220Z,17.86
2023-04-03T08:54:49.907Z,18.25
2023-04-03T08:57:18.735Z,18.66
2023-04-03T08:59:47.205Z,18.83
2023-04-03T09:02:36.127Z,18.66
2023-04-03T09:05:13.447Z,19.48
2023-04-03T09:07:43.893Z,19.63
2023-04-03T09:10:13.646Z,19.94
2023-04-03T09:12:44.536Z,19.22
2023-04-03T09:15:27.899Z,19.71
2023-04-03T09:18:03.756Z,19.45
2023-04-03T09:20:31.664Z,19.68
2023-04-03T09:22:59.222Z,19.39
2023-04-03T09:25:29.980Z,18.76
2023-04-03T09:27:58.646Z,19.44
2023-04-03T09:30:27.021Z,20.00
2023-04-03T09:32:55.871Z,18.98
2023-04-03T09:35:29.846Z,19.62
2023-04-03T09:38:03.649Z,19.80
2023-04-03T09:40:35.950Z,19.32
2023-04-03T09:43:21.080Z,20.05
2023-04-03T09:45:49.960Z,19.58
2023-04-03T09:48:25.277Z,19.22
2023-04-03T09:50:57.752Z,18.63
2023-04-03T09:53:31.567Z,19.91
2023-04-03T09:56:00.140Z,19.34
2023-04-03T09:58:46.759Z,19.63
2023-04-03T10:01:26.728Z,20.25
2023-04-03T10:04:05.587Z,19.02
2023-04-03T10:06:36.842Z,19.80
2023-04-03T10:09:07.575Z,20.70
2023-04-03T10:11:35.483Z,19.65
2023-04-03T10:14:07.265Z,20.94
2023-04-03T10:16:49.089Z,19.87
2023-04-03T10:19:27.347Z,20.21
2023-04-03T10:21:55.242Z,20.33
2023-04-03T10:24:26.406Z,20.29
2023-04-03T10:27:07.580Z,19.75
2023-04-03T10:29:51.048Z,20.29
2023-04-03T10:32:18.922Z,20.84
2023-04-03T10:34:58.604Z,19.73
2023-04-03T10:37:52.979Z,19.09
2023-04-03T10:40:20.446Z,19.49
2023-04-03T10:42:54.289Z,20.26
2023-04-03T10:45:30.922Z,20.32
2023-04-03T10:48:08.023Z,21.09
2023-04-03T10:50:54.403Z,19.39
2023-04-03T10:53:42.800Z,20.49
2023-04-03T10:56:15.851Z,20.48
2023-04-03T10:58:46.142Z,20.52
2023-04-03T11:01:17.002Z,21.47
2023-04-03T11:03:47.372Z,20.79
2023-04-03T11:06:16.473Z,21.31
2023-04-03T11:08:50.275Z,21.42
2023-04-03T11:11:21.521Z,20.68
2023-04-03T11:13:52.454Z,20.66
2023-04-03T11:16:28.467Z,20.90
2023-04-03T11:19:32.296Z,21.15
2023-04-03T11:22:07.241Z,21.39
2023-04-03T11:24:37.383Z,21.54
2023-04-03T11:27:06.496Z,20.68
2023-04-03T11:29:37.845Z,21.40
2023-04-03T11:32:08.533Z,19.98
2023-04-03T11:34:44.446Z,22.16
2023-04-03T11:37:14.754Z,22.47
2023-04-03T11:39:49.175Z,22.00
2023-04-03T11:42:16.772Z,22.23
2023-04-03T11:44:44.702Z,22.50
2023-04-03T11:47:13.390Z,21.52
2023-04-03T11:49:56.617Z,21.95
2023-04-03T11:52:41.500Z,22.53
2023-04-03T11:55:31.538Z,22.22
2023-04-03T11:57:59.149Z,22.52
2023-04-03T12:00:48.491Z,22.82
2023-04-03T12:03:33.882Z,21.76
2023-04-03T12:06:08.344Z,21.29
2023-04-03T12:08:45.626Z,20.50
2023-04-03T12:11:13.555Z,21.11
2023-04-03T12:14:04.645Z,21.49
2023-04-03T12:16:35.281Z,20.85
2023-04-03T12:19:04.824Z,20.57
2023-04-03T12:21:35.784Z,19.93
2023-04-03T12:24:25.075Z,20.42
2023-04-03T12:27:02.932Z,19.81
2023-04-03T12:29:30.372Z,19.43
2023-04-03T12:32:10.410Z,19.69
2023-04-03T12:34:38.178Z,21.05
2023-04-03T12:37:24.963Z,20.35
2023-04-03T12:39:55.929Z,20.66
2023-04-03T12:42:34.392Z,19.96
2023-04-03T12:45:04.694Z,19.63
2023-04-03T12:47:37.896Z,19.66
2023-04-03T12:50:06.482Z,20.07
2023-04-03T12:52:42.125Z,21.23
2023-04-03T12:55:18.408Z,20.70
2023-04-03T12:57:46.834Z,21.19
2023-04-03T13:00:43.676Z,21.09
2023-04-03T13:03:30.668Z,20.72
2023-04-03T13:06:00.716Z,21.04
2023-04-03T13:08:28.577Z,20.56
2023-04-03T13:11:11.035Z,20.97
2023-04-03T13:13:40.575Z,19.10
2023-04-03T13:16:12.327Z,21.02
2023-04-03T13:18:40.792Z,19.63
2023-04-03T13:21:13.641Z,19.75
2023-04-03T13:23:43.863Z,19.54
2023-04-03T13:26:12.328Z,20.32
2023-04-03T13:28:41.788Z,19.77
2023-04-03T13:31:15.770Z,18.95
2023-04-03T13:33:52.641Z,19.68
2023-04-03T13:36:22.365Z,19.34
2023-04-03T13:39:09.153Z,19.19
2023-04-03T13:41:40.489Z,19.93
2023-04-03T13:44:23.724Z,19.66
2023-04-03T13:46:56.420Z,19.21
2023-04-03T13:49:28.344Z,19.32
2023-04-03T13:52:07.158Z,19.91
2023-04-03T13:54:39.745Z,19.08
2023-04-03T13:57:15.218Z,19.44
2023-04-03T13:59:44.421Z,19.90
2023-04-03T14:02:12.112Z,19.70
2023-04-03T14:04:48.500Z,19.77
2023-04-03T14:07:17.976Z,19.76
2023-04-03T14:09:46.275Z,20.07
2023-04-03T14:12:30.272Z,19.73
2023-04-03T14:15:00.188Z,19.59
2023-04-03T14:17:28.889Z,19.08
2023-04-03T14:19:57.543Z,19.42
2023-04-03T14:22:26.441Z,19.36
2023-04-03T14:24:54.454Z,19.83
2023-04-03T14:27:27.936Z,19.22
2023-04-03T14:29:56.998Z,19.14
2023-04-03T14:32:25.600Z,18.82
2023-04-03T14:34:54.279Z,19.27
2023-04-03T14:37:27.805Z,19.46
2023-04-03T14:39:56.127Z,19.78
2023-04-03T14:42:29.648Z,19.86
2023-04-03T14:44:58.490Z,19.43
2023-04-03T14:47:31.817Z,19.73
2023-04-03T14:50:01.281Z,19.58
2023-04-03T14:52:31.076Z,18.95
2023-04-03T14:54:59.109Z,19.47
2023-04-03T14:57:28.326Z,19.63
2023-04-03T14:59:56.366Z,19.54
2023-04-03T15:02:24.048Z,19.72
2023-04-03T15:04:53.463Z,19.89
2023-04-03T15:07:21.561Z,19.96
2023-04-03T15:09:50.588Z,19.82
2023-04-03T15:12:18.464Z,19.48
2023-04-03T15:14:52.456Z,19.25
2023-04-03T15:17:25.273Z,19.68
2023-04-03T15:19:53.211Z,19.78
2023-04-03T15:22:21.087Z,19.54
2023-04-03T15:24:49.201Z,19.69
2023-04-03T15:27:17.837Z,19.73
2023-04-03T15:29:46.107Z,19.69
2023-04-03T15:32:14.049Z,19.90
2023-04-03T15:34:42.012Z,19.68
2023-04-03T15:37:09.618Z,18.99
2023-04-03T15:39:37.476Z,19.73
2023-04-03T15:42:07.552Z,19.70
2023-04-03T15:44:35.804Z,19.37
2023-04-03T15:47:03.885Z,19.55
2023-04-03T15:49:34.012Z,18.64
2023-04-03T15:52:01.558Z,18.69
2023-04-03T15:54:30.676Z,18.88
2023-04-03T15:56:58.488Z,19.02
2023-04-03T15:59:26.458Z,18.58
2023-04-03T16:01:54.280Z,18.72
2023-04-03T16:04:22.380Z,19.30
2023-04-03T16:06:50.358Z,19.39
2023-04-03T16:09:18.335Z,19.30
2023-04-03T16:11:46.135Z,19.27
2023-04-03T16:14:13.980Z,19.16
2023-04-03T16:16:41.617Z,19.29
2023-04-03T16:19:10.093Z,19.38
2023-04-03T16:21:37.639Z,18.72
2023-04-03T16:24:05.778Z,18.76
2023-04-03T16:26:33.566Z,18.74
2023-04-03T16:29:01.416Z,18.79
2023-04-03T16:31:29.477Z,18.58
2023-04-03T16:33:57.826Z,18.16
2023-04-03T16:36:26.981Z,18.29
2023-04-03T16:38:54.877Z,18.04
2023-04-03T16:41:22.459Z,18.05
2023-04-03T16:43:51.861Z,18.33
2023-04-03T16:46:19.673Z,18.13
2023-04-03T16:48:47.996Z,18.13
2023-04-03T16:51:15.803Z,17.64
2023-04-03T16:53:44.108Z,17.63
2023-04-03T16:56:11.819Z,17.91
2023-04-03T16:58:39.957Z,17.55
2023-04-03T17:01:11.912Z,17.08
2023-04-03T17:03:40.492Z,16.99
2023-04-03T17:06:08.118Z,17.32
2023-04-03T17:08:36.309Z,17.41
2023-04-03T17:11:04.048Z,17.52
2023-04-03T17:13:33.536Z,17.59
2023-04-03T17:16:01.464Z,17.38
2023-04-03T17:18:29.420Z,17.43
2023-04-03T17:20:57.228Z,17.23
2023-04-03T17:23:26.698Z,17.37
2023-04-03T17:25:55.342Z,17.27
2023-04-03T17:28:28.738Z,17.35
2023-04-03T17:30:56.755Z,17.29
2023-04-03T17:33:26.440Z,17.47
2023-04-03T17:35:57.166Z,17.58
2023-04-03T17:38:27.231Z,17.57
2023-04-03T17:40:58.952Z,17.38
2023-04-03T17:43:27.454Z,17.28
2023-04-03T17:46:03.730Z,17.18
2023-04-03T17:48:33.393Z,17.48
2023-04-03T17:51:04.241Z,17.38
2023-04-03T17:53:32.660Z,17.56
2023-04-03T17:56:05.392Z,17.26
2023-04-03T17:58:33.451Z,17.07
2023-04-03T18:01:07.763Z,17.19
2023-04-03T18:03:36.038Z,17.24
2023-04-03T18:06:08.597Z,17.10
2023-04-03T18:08:38.995Z,17.38
2023-04-03T18:11:07.791Z,17.07
2023-04-03T18:13:37.854Z,17.09
2023-04-03T18:16:09.802Z,17.10
2023-04-03T18:18:40.516Z,17.11
2023-04-03T18:21:09.838Z,16.77
2023-04-03T18:23:39.470Z,16.77
2023-04-03T18:26:07.418Z,16.67
2023-04-03T18:28:35.734Z,16.72
2023-04-03T18:31:04.137Z,16.42
2023-04-03T18:33:32.297Z,16.59
2023-04-03T18:36:00.019Z,16.45
2023-04-03T18:38:28.149Z,16.40
2023-04-03T18:40:56.821Z,16.35
2023-04-03T18:43:26.673Z,16.28
2023-04-03T18:45:54.722Z,16.15
2023-04-03T18:48:22.881Z,15.88
2023-04-03T18:50:50.629Z,15.98
2023-04-03T18:53:18.731Z,16.16
2023-04-03T18:55:46.900Z,16.14
2023-04-03T18:58:14.865Z,16.02
2023-04-03T19:00:42.889Z,16.02
2023-04-03T19:03:12.936Z,16.21
2023-04-03T19:05:40.965Z,15.59
2023-04-03T19:08:09.528Z,15.13
2023-04-03T19:10:37.314Z,15.01
2023-04-03T19:13:05.846Z,14.91
2023-04-03T19:15:33.679Z,14.92
2023-04-03T19:18:01.911Z,14.78
2023-04-03T19:20:29.903Z,14.55
2023-04-03T19:22:58.054Z,14.53
2023-04-03T19:25:25.692Z,14.49
2023-04-03T19:27:53.999Z,14.25
2023-04-03T19:30:22.212Z,14.71
2023-04-03T19:32:51.830Z,14.25
2023-04-03T19:35:19.471Z,14.51
2023-04-03T19:37:51.271Z,14.37
2023-04-03T19:40:19.225Z,14.69
2023-04-03T19:42:47.674Z,14.76
2023-04-03T19:45:16.703Z,14.59
2023-04-03T19:47:45.284Z,14.47
2023-04-03T19:50:12.856Z,14.47
2023-04-03T19:52:41.104Z,14.70
2023-04-03T19:55:09.110Z,14.76
2023-04-03T19:57:37.260Z,14.85
2023-04-03T20:00:05.473Z,14.88
2023-04-03T20:02:39.200Z,14.63
2023-04-03T20:05:07.122Z,14.80
2023-04-03T20:07:35.271Z,14.84
2023-04-03T20:10:03.058Z,14.76
2023-04-03T20:12:31.392Z,15.04
2023-04-03T20:15:00.271Z,14.78
2023-04-03T20:17:28.372Z,14.95
2023-04-03T20:20:01.405Z,14.59
2023-04-03T20:22:30.727Z,14.94
2023-04-03T20:25:05.244Z,15.06
2023-04-03T20:27:35.176Z,14.98
2023-04-03T20:30:04.352Z,14.91
2023-04-03T20:32:32.473Z,15.20
2023-04-03T20:35:04.348Z,15.17
2023-04-03T20:37:32.994Z,15.24
2023-04-03T20:40:00.643Z,14.89
2023-04-03T20:42:28.565Z,14.81
2023-04-03T20:44:57.507Z,15.03
2023-04-03T20:47:25.520Z,15.22
2023-04-03T20:49:53.951Z,15.15
2023-04-03T20:52:21.868Z,15.27
2023-04-03T20:54:49.523Z,15.00
2023-04-03T20:57:17.930Z,15.26
2023-04-03T20:59:46.476Z,15.33
2023-04-03T21:02:15.820Z,15.30
2023-04-03T21:04:46.713Z,15.28
2023-04-03T21:07:33.632Z,15.28
2023-04-03T21:10:20.109Z,15.15
2023-04-03T21:13:06.719Z,15.22
2023-04-03T21:15:46.277Z,15.08
2023-04-03T21:18:17.318Z,15.07
2023-04-03T21:20:47.778Z,14.77
2023-04-03T21:23:17.071Z,14.78
2023-04-03T21:25:44.567Z,14.95
2023-04-03T21:28:12.460Z,14.70
2023-04-03T21:30:40.462Z,14.72
2023-04-03T21:33:09.883Z,14.56
2023-04-03T21:35:38.799Z,14.78
2023-04-03T21:38:06.700Z,15.11
2023-04-03T21:40:34.253Z,15.02
2023-04-03T21:43:02.620Z,14.97
2023-04-03T21:45:30.252Z,15.05
2023-04-03T21:47:59.356Z,14.80
2023-04-03T21:50:26.845Z,14.77
2023-04-03T21:52:55.036Z,14.85
2023-04-03T21:55:22.612Z,14.81
2023-04-03T21:57:51.504Z,14.81
2023-04-03T22:00:19.549Z,14.50
2023-04-03T22:02:48.293Z,14.45
2023-04-03T22:05:16.027Z,14.42
2023-04-03T22:07:44.478Z,14.35
2023-04-03T22:10:12.527Z,14.44
2023-04-03T22:12:40.374Z,14.59
2023-04-03T22:15:08.629Z,14.57
2023-04-03T22:17:37.069Z,14.46
2023-04-03T22:20:04.938Z,14.46
2023-04-03T22:22:32.835Z,14.62
2023-04-03T22:25:00.981Z,14.46
2023-04-03T22:27:30.808Z,14.52
2023-04-03T22:29:58.383Z,14.54
2023-04-03T22:32:26.324Z,14.13
2023-04-03T22:34:53.911Z,14.25
2023-04-03T22:37:22.060Z,14.22
2023-04-03T22:39:49.753Z,14.30
2023-04-03T22:42:17.710Z,14.39
2023-04-03T22:44:45.172Z,14.34
2023-04-03T22:47:13.105Z,14.19
2023-04-03T22:49:40.676Z,14.12
2023-04-03T22:52:08.773Z,14.31
2023-04-03T22:54:36.230Z,14.23
2023-04-03T22:57:04.480Z,14.22
2023-04-03T22:59:32.843Z,14.15
2023-04-03T23:02:01.885Z,13.95
2023-04-03T23:04:29.788Z,13.83
2023-04-03T23:06:59.134Z,13.66
2023-04-03T23:09:26.650Z,13.52
2023-04-03T23:11:54.527Z,13.83
2023-04-03T23:14:22.953Z,13.81
2023-04-03T23:16:51.098Z,13.50
2023-04-03T23:19:18.691Z,13.40
2023-04-03T23:21:46.839Z,13.49
2023-04-03T23:24:14.492Z,13.41
2023-04-03T23:26:42.669Z,13.63
2023-04-03T23:29:10.116Z,13.46
2023-04-03T23:31:38.050Z,13.48
2023-04-03T23:34:05.595Z,13.28
2023-04-03T23:36:33.681Z,13.51
2023-04-03T23:39:01.149Z,13.13
2023-04-03T23:41:29.043Z,13.20
2023-04-03T23:43:56.451Z,13.26
2023-04-03T23:46:24.695Z,13.00
2023-04-03T23:48:52.249Z,12.97
2023-04-03T23:51:20.052Z,13.15
2023-04-03T23:53:49.348Z,13.21
2023-04-03T23:56:17.482Z,13.10
2023-04-03T23:58:45.048Z,13.19
